Cala Pula — IBID — position and weather

sailwx.info

Track history (hours):
 
Tides and Currents Weather Stations Pressure Air Temp Water Temp Dewpoint Dewpoint Depression Visibility Wind Speed Wind Dir Waves Ship Positions

Cala Pula

Last reported at 2014-Oct-31 12:26 UTC. Time now 2014-Oct-31 14:28 UTC.
Position N 41°27' E 004°23'.

Length 189 m; draft 6.8 m.

Type: Cargo ship. MMSI: 247585000.

Date/timePositionNaut miles runAvg speedWind from/ knotsBaromVisibWave heightAir tempDewpointWater temp
2014-Oct-31 12:26N 41°27' E 004°23'2520.0
2014-Oct-31 11:12N 41°44' E 004°47'10919.1
2014-Oct-31 05:29N 42°58' E 006°35'1920.2
2014-Oct-31 04:33N 43°09' E 006°55'2320.0
2014-Oct-31 03:24N 43°23' E 007°21'6419.6
2014-Oct-31 00:10N 44°06' E 008°26'1016.1
2014-Oct-30 23:31N 44°16' E 008°28'1 0.2
2014-Oct-30 19:30N 44°16' E 008°27'0 0.0
2014-Oct-30 15:30N 44°16' E 008°27'0 0.0
2014-Oct-30 11:09N 44°16' E 008°27'0 0.0
2014-Oct-30 07:19N 44°16' E 008°27'0 0.0
2014-Oct-30 04:04N 44°16' E 008°27'0 0.0
2014-Oct-30 03:31N 44°16' E 008°27'0 0.0
2014-Oct-30 02:13N 44°16' E 008°27'0 0.0
2014-Oct-30 01:07N 44°16' E 008°27'0 0.0
2014-Oct-30 00:08N 44°16' E 008°27'1 0.9
2014-Oct-29 23:22N 44°16' E 008°28'9715.8
2014-Oct-29 17:13N 43°01' E 007°04'10817.6
2014-Oct-29 11:04N 42°17' E 004°49'2817.8
2014-Oct-29 09:30N 42°05' E 004°15'1818.1
2014-Oct-29 08:31N 41°57' E 003°54'1917.7
2014-Oct-29 07:27N 41°47' E 003°32'54511.9
2014-Oct-27 09:33N 35°58' W 005°26'  
Track history (hours):
 
Tides and Currents Weather Stations Pressure Air Temp Water Temp Dewpoint Dewpoint Depression Visibility Wind Speed Wind Dir Waves Ship Positions

Cala Pula

Last reported at 2014-Oct-31 12:26 UTC. Time now 2014-Oct-31 14:28 UTC.
Position N 41°27' E 004°23'.

Length 189 m; draft 6.8 m.

Type: Cargo ship. MMSI: 247585000.

Date/timePositionNaut miles runAvg speedWind from/ knotsBaromVisibWave heightAir tempDewpointWater temp
2014-Oct-31 12:26N 41°27' E 004°23'2520.0
2014-Oct-31 11:12N 41°44' E 004°47'10919.1
2014-Oct-31 05:29N 42°58' E 006°35'1920.2
2014-Oct-31 04:33N 43°09' E 006°55'2320.0
2014-Oct-31 03:24N 43°23' E 007°21'6419.6
2014-Oct-31 00:10N 44°06' E 008°26'1016.1
2014-Oct-30 23:31N 44°16' E 008°28'1 0.2
2014-Oct-30 19:30N 44°16' E 008°27'0 0.0
2014-Oct-30 15:30N 44°16' E 008°27'0 0.0
2014-Oct-30 11:09N 44°16' E 008°27'0 0.0
2014-Oct-30 07:19N 44°16' E 008°27'0 0.0
2014-Oct-30 04:04N 44°16' E 008°27'0 0.0
2014-Oct-30 03:31N 44°16' E 008°27'0 0.0
2014-Oct-30 02:13N 44°16' E 008°27'0 0.0
2014-Oct-30 01:07N 44°16' E 008°27'0 0.0
2014-Oct-30 00:08N 44°16' E 008°27'1 0.9
2014-Oct-29 23:22N 44°16' E 008°28'9715.8
2014-Oct-29 17:13N 43°01' E 007°04'10817.6
2014-Oct-29 11:04N 42°17' E 004°49'2817.8
2014-Oct-29 09:30N 42°05' E 004°15'1818.1
2014-Oct-29 08:31N 41°57' E 003°54'1917.7
2014-Oct-29 07:27N 41°47' E 003°32'54511.9
2014-Oct-27 09:33N 35°58' W 005°26'  

Dump ship's entire track history